Аэропорт: Элиста. Элиста

ICAO: URWI

METAR:
2020-08-09 23:00:00
URWI 092300Z AUTO 06003MPS 9999 // NSC 19/04 Q1010
METAR:
2020-08-09 14:00:00
TAF URWI 091400Z 0915/0924 03003G12MPS 9999 SCT040 TEMPO 0915/0924 01006G14MPS